createdAt,value
2023-03-02T00:01:09.491Z,3.91
2023-03-02T00:06:12.394Z,3.56
2023-03-02T00:11:15.744Z,3.31
2023-03-02T00:16:26.821Z,3.93
2023-03-02T00:21:29.526Z,6.50
2023-03-02T00:26:36.545Z,8.20
2023-03-02T00:31:39.539Z,8.49
2023-03-02T00:36:43.323Z,6.84
2023-03-02T00:41:47.178Z,5.73
2023-03-02T00:46:50.015Z,4.93
2023-03-02T00:51:52.817Z,4.33
2023-03-02T00:56:55.823Z,3.87
2023-03-02T01:02:00.670Z,3.56
2023-03-02T01:07:06.906Z,3.33
2023-03-02T01:12:11.491Z,3.15
2023-03-02T01:17:15.653Z,3.00
2023-03-02T01:22:19.421Z,3.22
2023-03-02T01:27:22.617Z,5.71
2023-03-02T01:32:25.410Z,7.67
2023-03-02T01:37:28.407Z,8.88
2023-03-02T01:42:37.772Z,8.50
2023-03-02T01:47:40.531Z,6.64
2023-03-02T01:52:44.007Z,5.49
2023-03-02T01:57:49.973Z,4.69
2023-03-02T02:02:54.510Z,4.07
2023-03-02T02:07:57.742Z,3.55
2023-03-02T02:13:00.443Z,3.09
2023-03-02T02:18:03.232Z,2.71
2023-03-02T02:23:27.664Z,2.40
2023-03-02T02:28:58.046Z,2.12
2023-03-02T02:34:23.043Z,1.91
2023-03-02T02:39:30.629Z,1.74
2023-03-02T02:44:34.013Z,1.58
2023-03-02T02:49:41.761Z,2.24
2023-03-02T02:54:51.739Z,4.89
2023-03-02T02:59:56.071Z,6.57
2023-03-02T03:05:04.642Z,7.61
2023-03-02T03:10:17.023Z,6.51
2023-03-02T03:15:20.626Z,4.83
2023-03-02T03:20:26.111Z,3.85
2023-03-02T03:25:29.233Z,3.12
2023-03-02T03:30:32.128Z,2.52
2023-03-02T03:35:37.234Z,2.06
2023-03-02T03:40:40.404Z,1.71
2023-03-02T03:45:43.371Z,1.48
2023-03-02T03:50:46.695Z,2.18
2023-03-02T03:55:50.831Z,4.63
2023-03-02T04:00:54.292Z,6.26
2023-03-02T04:05:57.145Z,5.94
2023-03-02T04:10:59.797Z,4.38
2023-03-02T04:16:02.791Z,3.45
2023-03-02T04:21:05.856Z,2.80
2023-03-02T04:26:08.664Z,2.29
2023-03-02T04:31:11.499Z,1.94
2023-03-02T04:36:14.677Z,2.48
2023-03-02T04:41:17.902Z,5.07
2023-03-02T04:46:24.250Z,6.80
2023-03-02T04:51:30.688Z,7.81
2023-03-02T04:56:34.407Z,7.65
2023-03-02T05:01:37.397Z,5.63
2023-03-02T05:06:40.413Z,4.34
2023-03-02T05:11:43.119Z,3.50
2023-03-02T05:16:45.908Z,2.87
2023-03-02T05:21:49.730Z,2.38
2023-03-02T05:26:52.534Z,2.19
2023-03-02T05:31:55.572Z,4.24
2023-03-02T05:36:58.953Z,6.22
2023-03-02T05:42:01.757Z,7.45
2023-03-02T05:47:04.712Z,8.29
2023-03-02T05:52:07.571Z,7.74
2023-03-02T05:57:10.459Z,5.67
2023-03-02T06:02:13.747Z,4.39
2023-03-02T06:07:16.677Z,3.59
2023-03-02T06:12:19.402Z,2.95
2023-03-02T06:17:22.816Z,3.40
2023-03-02T06:22:25.698Z,5.79
2023-03-02T06:27:28.388Z,7.29
2023-03-02T06:32:34.280Z,8.30
2023-03-02T06:37:37.482Z,7.64
2023-03-02T06:42:41.886Z,5.86
2023-03-02T06:47:44.726Z,4.79
2023-03-02T06:52:47.503Z,4.13
2023-03-02T06:57:51.662Z,3.92
2023-03-02T07:02:56.350Z,5.96
2023-03-02T07:07:59.709Z,7.70
2023-03-02T07:13:02.555Z,8.79
2023-03-02T07:18:05.626Z,8.07
2023-03-02T07:23:08.435Z,6.26
2023-03-02T07:28:11.240Z,5.09
2023-03-02T07:33:13.992Z,4.40
2023-03-02T07:38:16.840Z,5.63
2023-03-02T07:43:20.322Z,7.48
2023-03-02T07:48:23.572Z,7.59
2023-03-02T07:53:27.190Z,5.65
2023-03-02T07:58:30.171Z,4.45
2023-03-02T08:03:32.994Z,4.92
2023-03-02T08:08:36.771Z,7.41
2023-03-02T08:13:40.523Z,8.18
2023-03-02T08:18:44.028Z,6.64
2023-03-02T08:23:47.690Z,5.37
2023-03-02T08:28:50.495Z,4.91
2023-03-02T08:33:53.696Z,6.97
2023-03-02T08:38:56.503Z,7.33
2023-03-02T08:43:59.423Z,5.71
2023-03-02T08:49:02.304Z,5.80
2023-03-02T08:54:05.133Z,8.39
2023-03-02T08:59:12.511Z,8.99
2023-03-02T09:04:15.746Z,7.72
2023-03-02T09:09:18.433Z,7.09
2023-03-02T09:14:21.214Z,6.52
2023-03-02T09:19:23.918Z,6.74
2023-03-02T09:24:26.723Z,9.41
2023-03-02T09:29:29.726Z,10.49
2023-03-02T09:34:32.547Z,12.60
2023-03-02T09:39:36.867Z,14.34
2023-03-02T09:44:57.864Z,15.64
2023-03-02T09:50:36.119Z,18.00
2023-03-02T09:55:39.325Z,20.72
2023-03-02T10:00:44.092Z,22.75
2023-03-02T10:05:54.262Z,24.16
2023-03-02T10:11:13.464Z,25.25
2023-03-02T10:16:28.061Z,26.25
2023-03-02T10:21:47.618Z,27.02
2023-03-02T10:26:57.553Z,27.09
2023-03-02T10:32:16.986Z,27.20
2023-03-02T10:37:30.585Z,27.64
2023-03-02T10:42:40.521Z,27.79
2023-03-02T10:47:43.418Z,28.22
2023-03-02T10:52:59.740Z,28.66
2023-03-02T10:58:26.263Z,28.81
2023-03-02T11:03:30.212Z,29.01
2023-03-02T11:08:33.137Z,29.04
2023-03-02T11:13:38.688Z,29.32
2023-03-02T11:19:05.644Z,29.51
2023-03-02T11:24:20.836Z,29.52
2023-03-02T11:29:36.351Z,29.65
2023-03-02T11:34:51.538Z,29.63
2023-03-02T11:40:04.162Z,29.78
2023-03-02T11:45:30.424Z,29.84
2023-03-02T11:50:37.402Z,30.28
2023-03-02T11:55:48.591Z,30.68
2023-03-02T12:00:53.824Z,30.74
2023-03-02T12:06:16.748Z,30.88
2023-03-02T12:11:19.454Z,30.84
2023-03-02T12:16:35.000Z,30.98
2023-03-02T12:21:43.670Z,30.88
2023-03-02T12:26:46.503Z,30.52
2023-03-02T12:31:55.975Z,30.21
2023-03-02T12:37:04.614Z,30.03
2023-03-02T12:42:45.085Z,30.06
2023-03-02T12:47:51.716Z,30.33
2023-03-02T12:53:01.430Z,30.47
2023-03-02T12:58:04.182Z,30.68
2023-03-02T13:03:09.928Z,30.76
2023-03-02T13:08:25.609Z,30.79
2023-03-02T13:13:39.128Z,30.74
2023-03-02T13:18:42.062Z,30.47
2023-03-02T13:23:50.385Z,30.15
2023-03-02T13:29:20.784Z,29.92
2023-03-02T13:34:27.250Z,29.44
2023-03-02T13:39:32.109Z,29.17
2023-03-02T13:44:35.581Z,29.02
2023-03-02T13:49:39.347Z,28.57
2023-03-02T13:54:45.392Z,28.29
2023-03-02T13:59:48.735Z,28.16
2023-03-02T14:04:52.381Z,27.99
2023-03-02T14:09:57.300Z,27.83
2023-03-02T14:15:03.617Z,27.75
2023-03-02T14:20:07.324Z,27.37
2023-03-02T14:25:10.690Z,27.25
2023-03-02T14:30:21.546Z,27.19
2023-03-02T14:35:25.589Z,26.67
2023-03-02T14:40:28.867Z,26.12
2023-03-02T14:45:31.683Z,25.85
2023-03-02T14:50:42.028Z,25.63
2023-03-02T14:55:45.340Z,25.37
2023-03-02T15:00:48.693Z,24.87
2023-03-02T15:06:01.278Z,24.14
2023-03-02T15:11:04.809Z,23.57
2023-03-02T15:16:12.329Z,23.09
2023-03-02T15:21:18.707Z,22.56
2023-03-02T15:26:21.449Z,21.92
2023-03-02T15:31:24.259Z,21.07
2023-03-02T15:36:27.119Z,20.00
2023-03-02T15:41:29.912Z,19.09
2023-03-02T15:46:32.724Z,18.30
2023-03-02T15:51:35.616Z,17.35
2023-03-02T15:56:44.226Z,16.28
2023-03-02T16:01:47.564Z,15.12
2023-03-02T16:06:50.480Z,13.68
2023-03-02T16:11:53.241Z,11.69
2023-03-02T16:16:56.015Z,9.96
2023-03-02T16:21:59.100Z,8.61
2023-03-02T16:27:02.102Z,7.60
2023-03-02T16:32:06.568Z,6.81
2023-03-02T16:37:09.350Z,6.16
2023-03-02T16:42:12.540Z,5.65
2023-03-02T16:47:15.451Z,5.22
2023-03-02T16:52:18.580Z,4.85
2023-03-02T16:57:21.383Z,4.52
2023-03-02T17:02:24.078Z,4.24
2023-03-02T17:07:26.970Z,3.99
2023-03-02T17:12:29.745Z,3.76
2023-03-02T17:17:32.467Z,3.55
2023-03-02T17:22:35.278Z,3.37
2023-03-02T17:27:38.680Z,3.20
2023-03-02T17:32:41.891Z,3.04
2023-03-02T17:37:44.647Z,2.92
2023-03-02T17:42:48.537Z,2.83
2023-03-02T17:47:53.143Z,2.76
2023-03-02T17:52:56.369Z,2.67
2023-03-02T17:57:59.176Z,2.58
2023-03-02T18:03:02.120Z,2.51
2023-03-02T18:08:05.209Z,2.46
2023-03-02T18:13:07.983Z,2.42
2023-03-02T18:18:12.635Z,2.38
2023-03-02T18:23:15.646Z,2.29
2023-03-02T18:28:18.833Z,2.20
2023-03-02T18:33:21.651Z,2.96
2023-03-02T18:38:31.088Z,5.59
2023-03-02T18:43:37.293Z,7.33
2023-03-02T18:48:40.198Z,7.48
2023-03-02T18:53:43.212Z,5.62
2023-03-02T18:58:46.620Z,4.36
2023-03-02T19:03:50.237Z,3.61
2023-03-02T19:08:53.448Z,3.04
2023-03-02T19:13:56.162Z,3.38
2023-03-02T19:18:58.981Z,5.69
2023-03-02T19:24:01.964Z,7.10
2023-03-02T19:29:04.967Z,7.10
2023-03-02T19:34:07.878Z,5.19
2023-03-02T19:39:10.585Z,4.07
2023-03-02T19:44:13.369Z,3.32
2023-03-02T19:49:17.096Z,3.72
2023-03-02T19:54:19.829Z,5.94
2023-03-02T19:59:24.267Z,7.24
2023-03-02T20:04:27.915Z,6.89
2023-03-02T20:09:30.859Z,5.06
2023-03-02T20:14:36.047Z,3.96
2023-03-02T20:19:38.884Z,3.20
2023-03-02T20:24:42.892Z,2.57
2023-03-02T20:29:46.062Z,2.11
2023-03-02T20:34:48.868Z,3.79
2023-03-02T20:39:53.195Z,5.73
2023-03-02T20:44:56.514Z,6.86
2023-03-02T20:50:00.849Z,6.33
2023-03-02T20:55:05.603Z,4.42
2023-03-02T21:00:15.976Z,3.13
2023-03-02T21:05:20.728Z,2.19
2023-03-02T21:10:29.262Z,1.52
2023-03-02T21:15:32.319Z,0.98
2023-03-02T21:20:36.025Z,0.55
2023-03-02T21:25:41.155Z,0.19
2023-03-02T21:30:45.277Z,-0.13
2023-03-02T21:35:48.000Z,-0.41
2023-03-02T21:40:50.787Z,-0.65
2023-03-02T21:45:53.503Z,-0.85
2023-03-02T21:50:56.894Z,0.01
2023-03-02T21:56:01.950Z,2.66
2023-03-02T22:01:04.954Z,4.37
2023-03-02T22:06:07.755Z,5.49
2023-03-02T22:11:18.445Z,6.24
2023-03-02T22:16:27.053Z,5.18
2023-03-02T22:21:42.994Z,3.31
2023-03-02T22:26:49.603Z,2.08
2023-03-02T22:31:55.457Z,2.07
2023-03-02T22:37:20.658Z,4.09
2023-03-02T22:42:25.844Z,5.41
2023-03-02T22:47:28.660Z,6.07
2023-03-02T22:52:39.309Z,5.66
2023-03-02T22:57:42.908Z,3.39
2023-03-02T23:02:46.076Z,2.73
2023-03-02T23:07:48.867Z,4.42
2023-03-02T23:12:51.569Z,5.07
2023-03-02T23:17:57.555Z,5.38
2023-03-02T23:23:00.260Z,6.03
2023-03-02T23:28:03.047Z,5.50
2023-03-02T23:33:05.948Z,3.16
2023-03-02T23:38:08.758Z,2.75
2023-03-02T23:43:11.513Z,4.49
2023-03-02T23:48:14.461Z,5.52
2023-03-02T23:53:17.534Z,6.06
2023-03-02T23:58:20.706Z,4.47
